Time;durP1;ratioP1;P1;durP2;ratioP2;P2;SDS_P1;SDS_P2;PMS_P1;PMS_P2;Temp;Humidity;BMP_temperature;BMP_pressure;BME280_temperature;BME280_humidity;BME280_pressure;Samples;Min_cycle;Max_cycle;Signal;HPM_P1;HPM_P2
2023/03/07 00:00:49;;;;;;;44.97;14.75;;;;;;;-3.43;100.00;96789.47;5159612;27;20323;-62
2023/03/07 00:03:16;;;;;;;42.60;15.63;;;;;;;-3.48;100.00;96784.31;5159020;27;20145;-65
2023/03/07 00:05:43;;;;;;;42.78;15.70;;;;;;;-3.48;100.00;96784.31;5158940;27;20441;-59
2023/03/07 00:08:10;;;;;;;39.15;12.73;;;;;;;-3.51;100.00;96780.41;5159046;27;20061;-65
2023/03/07 00:10:37;;;;;;;35.25;11.02;;;;;;;-3.51;100.00;96780.41;5158998;27;20141;-59
2023/03/07 00:13:03;;;;;;;40.08;14.23;;;;;;;-3.36;100.00;96777.09;5159260;27;20145;-64
2023/03/07 00:15:30;;;;;;;40.50;11.98;;;;;;;-3.36;100.00;96777.09;5158991;27;20051;-65
2023/03/07 00:17:57;;;;;;;27.55;11.80;;;;;;;-3.44;100.00;96779.88;5159210;27;20055;-60
2023/03/07 00:20:23;;;;;;;25.10;10.38;;;;;;;-3.51;100.00;96782.31;5158066;27;20100;-60
2023/03/07 00:22:49;;;;;;;27.35;10.70;;;;;;;-3.58;100.00;96769.47;5159267;27;20043;-67
2023/03/07 00:25:16;;;;;;;27.15;9.50;;;;;;;-3.40;100.00;96754.78;5158791;27;20225;-58
2023/03/07 00:27:42;;;;;;;32.60;9.63;;;;;;;-3.39;100.00;96760.91;5159142;27;20427;-66
2023/03/07 00:30:11;;;;;;;27.02;9.63;;;;;;;-3.44;100.00;96755.75;5158894;27;20059;-58
2023/03/07 00:32:38;;;;;;;34.70;11.43;;;;;;;-3.31;100.00;96751.97;5159091;27;20471;-64
2023/03/07 00:35:04;;;;;;;30.48;10.93;;;;;;;-3.45;100.00;96757.66;5158825;27;20058;-59
2023/03/07 00:37:31;;;;;;;35.55;12.25;;;;;;;-3.43;100.00;96755.44;5158767;27;20051;-60
2023/03/07 00:39:57;;;;;;;27.10;11.30;;;;;;;-3.32;100.00;96750.44;5158940;27;20360;-65
2023/03/07 00:42:23;;;;;;;30.92;11.38;;;;;;;-3.24;100.00;96743.41;5158662;27;20046;-66
2023/03/07 00:44:50;;;;;;;30.60;12.05;;;;;;;-3.31;100.00;96752.75;5158626;27;20043;-59
2023/03/07 00:47:16;;;;;;;35.80;11.70;;;;;;;-3.35;100.00;96743.84;5158549;27;20051;-65
2023/03/07 00:49:43;;;;;;;38.60;12.93;;;;;;;-3.23;100.00;96748.44;5158793;27;20053;-61
2023/03/07 00:52:09;;;;;;;37.70;11.55;;;;;;;-3.19;100.00;96746.66;5158286;27;20043;-57
2023/03/07 00:54:35;;;;;;;34.97;12.05;;;;;;;-3.18;100.00;96747.44;5158777;27;20320;-64
2023/03/07 00:57:01;;;;;;;31.55;12.35;;;;;;;-3.28;100.00;96743.28;5158195;27;20110;-57
2023/03/07 00:59:27;;;;;;;32.53;11.40;;;;;;;-3.34;100.00;96731.22;5158695;27;20062;-65
2023/03/07 01:01:54;;;;;;;37.90;12.77;;;;;;;-3.16;100.00;96727.22;5158428;27;20094;-58
2023/03/07 01:04:20;;;;;;;39.83;15.90;;;;;;;-3.18;100.00;96729.44;5158295;27;20047;-66
2023/03/07 01:06:47;;;;;;;36.17;13.75;;;;;;;-3.12;100.00;96732.69;5158195;27;20050;-60
2023/03/07 01:09:13;;;;;;;37.33;12.82;;;;;;;-3.17;100.00;96725.63;5158282;27;20068;-62
2023/03/07 01:11:39;;;;;;;38.50;13.45;;;;;;;-3.19;100.00;96727.09;5158198;27;20051;-65
2023/03/07 01:14:06;;;;;;;30.98;11.38;;;;;;;-3.10;100.00;96723.22;5158139;27;20051;-59
2023/03/07 01:16:34;;;;;;;28.20;12.05;;;;;;;-3.19;100.00;96727.09;5158127;27;20065;-66
2023/03/07 01:19:03;;;;;;;36.47;14.48;;;;;;;-3.06;100.00;96723.31;5158076;27;20357;-64
2023/03/07 01:21:32;;;;;;;30.40;11.52;;;;;;;-3.00;100.00;96732.69;5158279;27;20046;-64
2023/03/07 01:23:58;;;;;;;61.25;23.00;;;;;;;-3.05;100.00;96737.50;5157807;27;20051;-66
2023/03/07 01:26:27;;;;;;;37.25;13.45;;;;;;;-3.07;100.00;96740.50;5158374;27;20050;-62
2023/03/07 01:28:55;;;;;;;34.45;14.27;;;;;;;-3.11;100.00;96718.16;5157786;27;20420;-66
2023/03/07 01:31:22;;;;;;;32.65;13.35;;;;;;;-3.25;100.00;96705.09;5160036;27;20051;-59
2023/03/07 01:33:50;;;;;;;28.45;10.70;;;;;;;-2.89;100.00;96715.03;5161537;27;20065;-65
2023/03/07 01:36:18;;;;;;;24.00;10.52;;;;;;;-2.91;100.00;96729.88;5161390;27;20107;-61
2023/03/07 01:38:44;;;;;;;20.58;9.02;;;;;;;-2.91;100.00;96733.34;5161650;27;20472;-66
2023/03/07 01:41:12;;;;;;;20.25;9.25;;;;;;;-2.90;100.00;96729.56;5161547;27;20059;-59
2023/03/07 01:43:38;;;;;;;19.52;9.20;;;;;;;-2.90;100.00;96739.50;5161697;27;20179;-62
2023/03/07 01:46:49;;;;;;;26.88;10.20;;;;;;;-2.94;100.00;96733.25;5161337;27;20055;-65
2023/03/07 01:49:23;;;;;;;27.67;10.68;;;;;;;-2.84;100.00;96722.06;5124493;27;20046;-66
2023/03/07 01:51:55;;;;;;;22.70;10.15;;;;;;;-2.91;100.00;96735.25;5161297;27;20106;-62
2023/03/07 01:54:23;;;;;;;29.80;9.60;;;;;;;-2.74;100.00;96731.56;5161182;27;20098;-63
2023/03/07 01:56:51;;;;;;;22.65;9.07;;;;;;;-2.75;100.00;96738.03;5161253;27;20061;-63
2023/03/07 01:59:23;;;;;;;29.95;9.98;;;;;;;-2.75;100.00;96741.50;5161517;27;20051;-66
2023/03/07 02:01:51;;;;;;;22.48;9.75;;;;;;;-2.71;100.00;96745.06;5161737;27;20107;-66
2023/03/07 02:04:22;;;;;;;19.88;8.80;;;;;;;-2.69;100.00;96750.09;5160962;27;20102;-67
2023/03/07 02:06:48;;;;;;;27.80;11.02;;;;;;;-2.76;100.00;96744.53;5161456;27;20061;-66
2023/03/07 02:09:19;;;;;;;24.55;10.65;;;;;;;-2.64;100.00;96745.28;5160958;27;20042;-64
2023/03/07 02:11:47;;;;;;;23.25;9.60;;;;;;;-2.59;100.00;96738.13;5161149;27;20049;-58
2023/03/07 02:14:14;;;;;;;24.60;10.05;;;;;;;-2.67;100.00;96748.63;5161192;27;20416;-65
2023/03/07 02:16:41;;;;;;;19.48;8.82;;;;;;;-2.57;100.00;96744.69;5161127;27;20054;-60
2023/03/07 02:19:21;;;;;;;27.63;10.57;;;;;;;-2.59;100.00;96746.97;5160972;27;20049;-63
2023/03/07 02:21:54;;;;;;;25.10;9.30;;;;;;;-2.56;100.00;96745.50;5160749;27;20043;-67
2023/03/07 02:24:29;;;;;;;30.63;11.23;;;;;;;-2.44;100.00;96738.19;5161020;27;20080;-59
2023/03/07 02:26:57;;;;;;;30.52;11.02;;;;;;;-2.49;100.00;96738.44;5160669;27;20055;-65
2023/03/07 02:29:23;;;;;;;29.63;11.10;;;;;;;-2.50;100.00;96746.81;5161167;27;20370;-66
2023/03/07 02:31:50;;;;;;;29.33;10.77;;;;;;;-2.53;100.00;96736.75;5160558;27;20050;-62
2023/03/07 02:34:21;;;;;;;31.90;11.30;;;;;;;-2.56;100.00;96751.66;5160764;27;20054;-65
2023/03/07 02:36:49;;;;;;;51.67;14.88;;;;;;;-2.51;100.00;96751.41;5160778;27;20097;-62
2023/03/07 02:39:17;;;;;;;44.47;14.77;;;;;;;-2.54;100.00;96745.94;5160463;27;20043;-63
2023/03/07 02:41:44;;;;;;;44.22;17.15;;;;;;;-2.52;100.00;96749.06;5160583;27;20046;-63
2023/03/07 02:44:10;;;;;;;50.70;15.98;;;;;;;-2.44;100.00;96740.88;5159950;27;20050;-66
2023/03/07 02:46:37;;;;;;;46.30;15.20;;;;;;;-2.43;100.00;96741.69;5160736;27;20051;-61
2023/03/07 02:49:03;;;;;;;34.92;13.80;;;;;;;-2.39;100.00;96740.66;5160409;27;20107;-64
2023/03/07 02:51:29;;;;;;;41.63;16.45;;;;;;;-2.54;100.00;96737.88;5160702;27;20043;-60
2023/03/07 02:53:56;;;;;;;37.22;16.08;;;;;;;-2.56;100.00;96722.16;5160254;27;20142;-64
2023/03/07 02:56:23;;;;;;;40.05;14.73;;;;;;;-2.84;100.00;96696.03;5160567;27;20126;-61
2023/03/07 02:58:49;;;;;;;42.03;16.15;;;;;;;-2.55;100.00;96685.38;5160111;27;20440;-61
2023/03/07 03:01:16;;;;;;;38.45;14.70;;;;;;;-2.64;100.00;96683.59;5160296;27;20051;-59
2023/03/07 03:03:43;;;;;;;42.08;15.73;;;;;;;-2.43;100.00;96686.13;5159945;27;20400;-65
2023/03/07 03:06:09;;;;;;;40.78;14.40;;;;;;;-2.41;100.00;96681.16;5159924;27;20062;-60
2023/03/07 03:08:36;;;;;;;39.70;14.27;;;;;;;-2.44;100.00;96686.44;5160331;27;20109;-65
2023/03/07 03:11:02;;;;;;;40.83;15.05;;;;;;;-2.46;100.00;96669.91;5160077;27;20050;-60
2023/03/07 03:13:28;;;;;;;50.03;14.25;;;;;;;-2.52;100.00;96653.28;5160124;27;20423;-65
2023/03/07 03:15:55;;;;;;;49.15;13.32;;;;;;;-2.48;100.00;96659.50;5159770;27;20061;-58
2023/03/07 03:18:22;;;;;;;39.90;13.43;;;;;;;-2.59;100.00;96650.41;5160244;27;20047;-65
2023/03/07 03:20:48;;;;;;;33.40;14.32;;;;;;;-2.58;100.00;96660.00;5159772;27;20439;-58
2023/03/07 03:23:14;;;;;;;34.08;13.40;;;;;;;-2.67;100.00;96644.03;5160175;27;20047;-64
2023/03/07 03:25:41;;;;;;;33.58;12.57;;;;;;;-2.54;100.00;96633.28;5159941;27;20061;-60
2023/03/07 03:28:07;;;;;;;26.23;10.75;;;;;;;-2.42;100.00;96622.50;5160141;27;20404;-63
2023/03/07 03:30:34;;;;;;;26.10;9.52;;;;;;;-2.49;100.00;96631.13;5159901;27;20069;-57
2023/03/07 03:33:01;;;;;;;17.92;7.90;;;;;;;-2.35;100.00;96638.00;5160095;27;20066;-60
2023/03/07 03:35:28;;;;;;;18.77;7.22;;;;;;;-2.33;100.00;96633.88;5159766;27;20097;-64
2023/03/07 03:37:54;;;;;;;18.90;8.35;;;;;;;-2.17;100.00;96639.25;5159586;27;20051;-60
2023/03/07 03:40:21;;;;;;;24.02;9.57;;;;;;;-2.18;100.00;96640.38;5159919;27;20102;-63
2023/03/07 03:42:47;;;;;;;24.58;9.55;;;;;;;-2.26;100.00;96646.69;5159507;27;20053;-65
2023/03/07 03:45:14;;;;;;;20.98;9.20;;;;;;;-2.32;100.00;96638.09;5160007;27;20043;-62
2023/03/07 03:47:40;;;;;;;23.52;8.68;;;;;;;-2.41;100.00;96643.59;5159528;27;20051;-62
2023/03/07 03:50:07;;;;;;;18.40;8.05;;;;;;;-2.43;100.00;96645.09;5159761;27;20046;-59
2023/03/07 03:52:36;;;;;;;19.70;7.20;;;;;;;-2.46;100.00;96646.56;5159366;27;20110;-59
2023/03/07 03:55:02;;;;;;;15.13;7.72;;;;;;;-2.48;100.00;96648.00;5158470;27;20110;-63
2023/03/07 03:57:28;;;;;;;21.88;8.27;;;;;;;-2.41;100.00;96642.84;5159037;27;20123;-66
2023/03/07 03:59:54;;;;;;;28.23;9.07;;;;;;;-2.39;100.00;96641.38;5159158;27;20102;-60
2023/03/07 04:02:21;;;;;;;23.98;8.85;;;;;;;-2.35;100.00;96644.16;5159707;27;20110;-65
2023/03/07 04:04:47;;;;;;;19.75;8.70;;;;;;;-2.32;100.00;96640.78;5159203;27;20099;-61
2023/03/07 04:07:13;;;;;;;28.02;10.77;;;;;;;-2.22;100.00;96644.88;5159479;27;20047;-66
2023/03/07 04:09:40;;;;;;;21.67;8.60;;;;;;;-2.22;100.00;96651.03;5159181;27;20300;-57
2023/03/07 04:12:07;;;;;;;20.40;8.15;;;;;;;-2.27;100.00;96653.16;5159088;27;20324;-62
2023/03/07 04:14:33;;;;;;;21.20;7.70;;;;;;;-2.21;100.00;96651.81;5159116;27;20046;-66
2023/03/07 04:16:59;;;;;;;17.63;6.63;;;;;;;-2.26;100.00;96644.03;5159083;27;20444;-59
2023/03/07 04:19:25;;;;;;;23.17;10.35;;;;;;;-2.15;100.00;96637.03;5158895;27;20051;-64
2023/03/07 04:21:52;;;;;;;23.70;10.60;;;;;;;-2.24;100.00;96631.78;5159268;27;20048;-58
2023/03/07 04:24:18;;;;;;;22.83;7.85;;;;;;;-2.46;100.00;96638.50;5158663;27;20076;-66
2023/03/07 04:26:45;;;;;;;16.25;7.22;;;;;;;-2.15;100.00;96663.88;5158966;27;20058;-61
2023/03/07 04:29:11;;;;;;;19.67;7.57;;;;;;;-2.04;100.00;96654.19;5158706;27;20442;-65
2023/03/07 04:31:37;;;;;;;26.60;8.88;;;;;;;-1.97;100.00;96632.88;5158635;27;20062;-66
2023/03/07 04:34:03;;;;;;;18.15;8.18;;;;;;;-2.48;100.00;96640.72;5158897;27;20046;-60
2023/03/07 04:36:29;;;;;;;21.08;8.23;;;;;;;-2.16;100.00;96649.66;5158662;27;20054;-66
2023/03/07 04:38:56;;;;;;;20.70;9.00;;;;;;;-1.94;100.00;96652.91;5158940;27;20043;-59
2023/03/07 04:41:25;;;;;;;19.20;7.50;;;;;;;-2.00;100.00;96663.13;5158423;27;20109;-66
2023/03/07 04:43:51;;;;;;;18.48;8.07;;;;;;;-1.93;100.00;96654.47;5158601;27;20047;-61
2023/03/07 04:46:18;;;;;;;21.00;8.52;;;;;;;-1.95;100.00;96651.34;5158287;27;20058;-67
2023/03/07 04:48:45;;;;;;;18.35;8.50;;;;;;;-2.07;100.00;96649.50;5158728;27;20047;-64
2023/03/07 04:51:11;;;;;;;20.95;7.90;;;;;;;-1.85;100.00;96640.09;5158273;27;20055;-59
2023/03/07 04:53:38;;;;;;;20.33;8.90;;;;;;;-2.03;100.00;96649.59;5158708;27;20051;-63
2023/03/07 04:56:07;;;;;;;32.92;7.93;;;;;;;-1.92;100.00;96645.28;5158494;27;20367;-61
2023/03/07 04:58:34;;;;;;;22.35;9.32;;;;;;;-1.88;100.00;96651.53;5158321;27;20059;-60
2023/03/07 05:01:02;;;;;;;26.85;9.13;;;;;;;-1.98;100.00;96652.03;5158360;27;20103;-73
2023/03/07 05:03:29;;;;;;;21.25;8.23;;;;;;;-1.83;100.00;96645.91;5157928;27;20388;-66
2023/03/07 05:05:55;;;;;;;20.90;7.65;;;;;;;-1.76;100.00;96648.00;5157672;27;20357;-62
2023/03/07 05:08:22;;;;;;;15.90;7.07;;;;;;;-1.86;100.00;96645.81;5158152;27;20441;-65
2023/03/07 05:10:49;;;;;;;14.57;6.43;;;;;;;-1.93;100.00;96654.47;5158160;27;20047;-64
2023/03/07 05:13:15;;;;;;;13.23;7.13;;;;;;;-1.84;100.00;96665.03;5157469;27;20050;-64
2023/03/07 05:15:42;;;;;;;17.33;7.53;;;;;;;-1.85;100.00;96668.88;5137275;27;20066;-65
2023/03/07 05:18:09;;;;;;;13.38;6.57;;;;;;;-1.82;100.00;96670.88;5137004;28;20351;-63
2023/03/07 05:20:35;;;;;;;12.52;6.10;;;;;;;-1.88;100.00;96670.31;5137482;27;20043;-63
2023/03/07 05:23:01;;;;;;;11.88;6.47;;;;;;;-1.93;100.00;96665.22;5137181;27;20080;-65
2023/03/07 05:25:28;;;;;;;20.00;8.30;;;;;;;-1.91;100.00;96669.09;5137082;28;20127;-62
2023/03/07 05:27:54;;;;;;;17.00;7.35;;;;;;;-1.85;100.00;96674.22;5137029;27;20458;-63
2023/03/07 05:30:21;;;;;;;14.38;6.95;;;;;;;-1.86;100.00;96678.06;5137012;28;20335;-61
2023/03/07 05:32:47;;;;;;;16.38;7.25;;;;;;;-1.81;100.00;96677.78;5136954;28;20062;-57
2023/03/07 05:35:14;;;;;;;15.73;7.47;;;;;;;-2.02;100.00;96670.72;5136752;27;20095;-62
2023/03/07 05:37:40;;;;;;;16.73;7.25;;;;;;;-2.13;100.00;96681.19;5137070;28;20051;-61
2023/03/07 05:40:09;;;;;;;19.08;6.90;;;;;;;-2.09;100.00;96678.59;5136787;28;20047;-59
2023/03/07 05:42:35;;;;;;;14.48;6.90;;;;;;;-2.01;100.00;96699.13;5137090;27;20054;-61
2023/03/07 05:45:02;;;;;;;19.02;6.95;;;;;;;-1.94;100.00;96703.91;5136432;27;20063;-59
2023/03/07 05:47:29;;;;;;;19.27;7.15;;;;;;;-1.86;100.00;96699.53;5137161;27;20055;-62
2023/03/07 05:49:55;;;;;;;14.10;7.05;;;;;;;-1.76;100.00;96699.03;5136458;27;20116;-57
2023/03/07 05:52:22;;;;;;;19.60;6.63;;;;;;;-1.76;100.00;96693.66;5136480;27;20135;-57
2023/03/07 05:54:49;;;;;;;16.42;7.25;;;;;;;-1.74;100.00;96694.84;5136578;28;20392;-59
2023/03/07 05:57:15;;;;;;;11.80;6.70;;;;;;;-1.74;100.00;96696.75;5136756;27;20112;-61
2023/03/07 05:59:41;;;;;;;20.77;7.28;;;;;;;-1.42;100.00;96698.34;5136767;28;20130;-57
2023/03/07 06:02:07;;;;;;;17.70;6.97;;;;;;;-1.00;100.00;96694.34;5136336;28;20111;-58
2023/03/07 06:04:33;;;;;;;18.05;6.47;;;;;;;-0.65;100.00;96686.28;5136560;27;20043;-59
2023/03/07 06:07:00;;;;;;;12.75;6.47;;;;;;;0.09;100.00;96694.31;5136260;28;20132;-54
2023/03/07 06:09:27;;;;;;;15.77;7.22;;;;;;;0.97;100.00;96728.59;5136593;27;20115;-64
2023/03/07 06:11:53;;;;;;;27.15;13.55;;;;;;;1.62;100.00;96819.44;5136218;28;20047;-55
2023/03/07 06:14:19;;;;;;;32.13;15.13;;;;;;;2.16;100.00;96929.06;5136568;27;20138;-59
2023/03/07 06:16:45;;;;;;;28.48;14.02;;;;;;;2.68;100.00;97011.34;5135938;27;20051;-57
2023/03/07 06:19:11;;;;;;;32.33;12.63;;;;;;;2.34;100.00;97081.53;5139701;27;20319;-61
2023/03/07 06:21:38;;;;;;;32.85;15.77;;;;;;;2.38;100.00;97094.34;5139785;28;20061;-59
2023/03/07 06:24:06;;;;;;;28.70;15.93;;;;;;;2.77;100.00;97117.38;5140199;28;20047;-63
2023/03/07 06:26:33;;;;;;;28.58;14.70;;;;;;;3.17;100.00;97126.88;5139823;27;20101;-56
2023/03/07 06:29:00;;;;;;;22.77;11.98;;;;;;;3.58;100.00;97167.66;5139466;27;20408;-58
2023/03/07 06:31:27;;;;;;;28.40;11.43;;;;;;;4.09;100.00;97186.09;5139714;28;20047;-56
2023/03/07 06:33:53;;;;;;;16.23;8.27;;;;;;;4.43;100.00;97211.28;5139872;27;20413;-60
2023/03/07 06:36:20;;;;;;;18.35;8.05;;;;;;;4.52;100.00;97245.47;5139780;27;20047;-54
2023/03/07 06:38:46;;;;;;;9.18;5.68;;;;;;;5.01;100.00;97264.19;5139388;28;20497;-57
2023/03/07 06:41:12;;;;;;;12.00;5.75;;;;;;;5.26;100.00;97286.13;5139673;28;20051;-60
2023/03/07 06:43:39;;;;;;;11.57;5.85;;;;;;;5.29;100.00;97306.31;5139268;28;20051;-59
2023/03/07 06:46:06;;;;;;;11.25;5.43;;;;;;;5.54;100.00;97312.75;5139599;28;20051;-57
2023/03/07 06:48:33;;;;;;;10.25;4.93;;;;;;;5.27;100.00;97319.53;5139492;27;20051;-60
2023/03/07 06:51:05;;;;;;;9.13;5.40;;;;;;;5.23;100.00;97310.53;5139386;28;20073;-63
2023/03/07 06:53:31;;;;;;;10.32;5.38;;;;;;;5.74;100.00;97323.41;5139482;28;20058;-62
2023/03/07 06:55:57;;;;;;;10.00;4.97;;;;;;;5.75;98.12;97339.31;5139341;27;20051;-58
2023/03/07 06:58:23;;;;;;;10.85;5.53;;;;;;;5.96;95.59;97327.81;5139293;27;20150;-60
2023/03/07 07:00:50;;;;;;;9.98;4.53;;;;;;;5.77;93.33;97336.25;5138993;27;20137;-58
2023/03/07 07:03:18;;;;;;;13.40;5.72;;;;;;;5.53;96.49;97332.16;5139355;27;20188;-61
2023/03/07 07:05:45;;;;;;;17.48;6.13;;;;;;;5.87;94.78;97330.09;5138863;27;20058;-61
2023/03/07 07:08:11;;;;;;;8.55;4.75;;;;;;;5.83;92.24;97340.13;5139338;28;20461;-63
2023/03/07 07:10:38;;;;;;;12.27;5.85;;;;;;;6.05;92.00;97339.16;5138929;27;20417;-65
2023/03/07 07:13:04;;;;;;;9.32;5.80;;;;;;;6.24;89.92;97343.56;5139422;28;20389;-62
2023/03/07 07:15:31;;;;;;;14.88;6.53;;;;;;;6.29;89.00;97350.56;5138673;27;20050;-61
2023/03/07 07:17:58;;;;;;;10.35;5.63;;;;;;;6.69;88.36;97346.09;5138767;28;20058;-62
2023/03/07 07:20:24;;;;;;;10.70;5.25;;;;;;;6.66;83.95;97349.59;5139091;27;20051;-63
2023/03/07 07:22:51;;;;;;;8.52;5.32;;;;;;;6.74;81.94;97356.63;5138841;28;20074;-61
2023/03/07 07:25:17;;;;;;;10.85;5.88;;;;;;;7.18;80.17;97364.53;5138695;28;20043;-59
2023/03/07 07:27:43;;;;;;;12.20;5.80;;;;;;;6.95;79.56;97362.16;5138599;28;20416;-63
2023/03/07 07:30:11;;;;;;;10.40;5.57;;;;;;;6.79;78.93;97369.88;5138735;27;20051;-59
2023/03/07 07:32:37;;;;;;;13.55;6.28;;;;;;;6.84;78.82;97373.00;5138626;28;20142;-65
2023/03/07 07:35:05;;;;;;;12.40;6.93;;;;;;;7.28;78.04;97371.19;5138710;27;20058;-59
2023/03/07 07:37:32;;;;;;;13.80;6.18;;;;;;;7.07;77.65;97363.75;5138543;27;20055;-64
2023/03/07 07:39:58;;;;;;;11.60;5.80;;;;;;;6.82;78.47;97363.66;5138956;27;20051;-63
2023/03/07 07:42:24;;;;;;;11.98;6.47;;;;;;;6.72;80.45;97356.22;5138396;27;20051;-59
2023/03/07 07:44:50;;;;;;;15.43;6.53;;;;;;;7.53;79.36;97352.13;5138574;27;20297;-63
2023/03/07 07:47:16;;;;;;;12.65;5.88;;;;;;;8.00;75.03;97366.56;5138408;28;20051;-58
2023/03/07 07:49:43;;;;;;;25.23;7.80;;;;;;;8.13;74.45;97353.25;5138605;28;20051;-63
2023/03/07 07:52:10;;;;;;;6.65;5.05;;;;;;;7.46;72.96;97366.56;5138630;27;20047;-61
2023/03/07 07:54:36;;;;;;;13.52;6.20;;;;;;;7.47;73.20;97362.66;5138264;28;20047;-61
2023/03/07 07:57:02;;;;;;;17.42;5.78;;;;;;;7.44;73.86;97362.66;5138405;28;20047;-62
2023/03/07 07:59:30;;;;;;;13.30;5.97;;;;;;;7.22;74.95;97364.53;5138203;28;20420;-61
2023/03/07 08:01:56;;;;;;;13.15;6.00;;;;;;;7.50;73.21;97366.56;5138498;28;20047;-55
2023/03/07 08:04:22;;;;;;;20.15;7.70;;;;;;;7.46;73.05;97366.56;5138046;27;20373;-62
2023/03/07 08:06:49;;;;;;;15.65;6.35;;;;;;;7.99;73.40;97370.44;5138750;28;20059;-61
2023/03/07 08:09:16;;;;;;;21.83;5.75;;;;;;;8.46;69.96;97371.16;5138159;27;20051;-60
2023/03/07 08:11:42;;;;;;;12.00;6.18;;;;;;;8.47;68.89;97370.78;5138474;28;20042;-59
2023/03/07 08:14:08;;;;;;;13.80;6.05;;;;;;;8.41;67.62;97374.31;5138227;28;20196;-62
2023/03/07 08:16:35;;;;;;;16.02;7.45;;;;;;;7.88;67.07;97375.91;5137665;27;20395;-58
2023/03/07 08:19:01;;;;;;;18.58;6.22;;;;;;;7.97;69.42;97370.06;5137915;28;20043;-60
2023/03/07 08:21:27;;;;;;;11.88;6.10;;;;;;;8.26;67.92;97365.31;5137651;28;20051;-61
2023/03/07 08:23:54;;;;;;;20.15;6.07;;;;;;;8.83;67.99;97373.41;5138016;27;20087;-59
2023/03/07 08:26:22;;;;;;;14.77;6.88;;;;;;;8.80;67.43;97373.41;5137820;27;20055;-55
2023/03/07 08:28:48;;;;;;;11.57;5.93;;;;;;;9.27;65.59;97373.97;5137945;28;20145;-58
2023/03/07 08:31:15;;;;;;;15.00;6.32;;;;;;;9.18;65.74;97372.44;5137697;28;20073;-63
2023/03/07 08:33:42;;;;;;;26.55;6.82;;;;;;;9.40;64.45;97377.81;5137866;28;20447;-63
2023/03/07 08:36:09;;;;;;;14.63;7.65;;;;;;;9.34;65.67;97374.69;5137264;27;20058;-58
2023/03/07 08:38:35;;;;;;;16.02;6.15;;;;;;;9.37;65.11;97373.13;5138069;27;20046;-58
2023/03/07 08:41:03;;;;;;;13.35;6.20;;;;;;;9.42;64.74;97375.44;5136637;27;20058;-63
2023/03/07 08:43:31;;;;;;;15.63;8.93;;;;;;;9.87;63.60;97372.78;5137526;28;20111;-64
2023/03/07 08:45:58;;;;;;;13.60;6.88;;;;;;;10.21;61.52;97374.81;5137391;28;20051;-61
2023/03/07 08:48:25;;;;;;;15.15;7.70;;;;;;;10.19;60.77;97375.22;5137419;28;20138;-63
2023/03/07 08:50:52;;;;;;;8.55;5.20;;;;;;;9.82;59.41;97373.97;5137645;28;20499;-58
2023/03/07 08:53:18;;;;;;;15.32;6.40;;;;;;;10.19;60.49;97377.16;5137424;28;20120;-64
2023/03/07 08:55:45;;;;;;;12.45;6.35;;;;;;;10.23;60.20;97378.72;5137618;27;20051;-65
2023/03/07 08:58:11;;;;;;;14.07;5.57;;;;;;;9.92;60.56;97379.75;5137123;28;20084;-67
2023/03/07 09:00:39;;;;;;;14.18;7.03;;;;;;;10.08;59.71;97375.31;5137721;27;20047;-63
2023/03/07 09:03:05;;;;;;;16.50;6.25;;;;;;;9.87;59.29;97379.03;5137066;28;20121;-63
2023/03/07 09:05:35;;;;;;;9.32;5.60;;;;;;;9.21;59.41;97381.81;5137488;27;20138;-60
2023/03/07 09:08:02;;;;;;;14.60;6.40;;;;;;;9.61;60.64;97383.13;5137152;28;20051;-60
2023/03/07 09:10:28;;;;;;;10.05;5.97;;;;;;;9.54;60.35;97379.66;5137089;28;20051;-66
2023/03/07 09:12:55;;;;;;;9.70;6.15;;;;;;;9.33;58.86;97378.63;5137299;28;20141;-65
2023/03/07 09:15:21;;;;;;;13.15;6.57;;;;;;;10.15;58.70;97382.69;5137431;28;20047;-69
2023/03/07 09:17:48;;;;;;;10.77;5.32;;;;;;;10.08;57.02;97388.22;5137259;28;20059;-64
2023/03/07 09:20:16;;;;;;;10.68;5.93;;;;;;;10.15;57.78;97393.63;5137098;28;20089;-68
2023/03/07 09:22:43;;;;;;;11.27;5.28;;;;;;;9.98;57.66;97389.88;5137474;27;20073;-69
2023/03/07 09:25:09;;;;;;;9.27;5.28;;;;;;;9.65;55.91;97380.34;5137015;28;20059;-65
2023/03/07 09:27:36;;;;;;;18.17;6.50;;;;;;;8.14;60.37;97384.88;5137415;27;20051;-64
2023/03/07 09:30:03;;;;;;;14.25;5.75;;;;;;;9.42;59.74;97381.66;5136966;28;20051;-65
2023/03/07 09:32:31;;;;;;;13.45;5.18;;;;;;;9.75;57.74;97389.66;5137369;27;20047;-63
2023/03/07 09:34:58;;;;;;;9.35;4.43;;;;;;;9.29;56.45;97386.03;5136639;27;20047;-65
2023/03/07 09:37:24;;;;;;;8.05;4.90;;;;;;;9.30;58.40;97379.41;5137013;27;20110;-64
2023/03/07 09:39:50;;;;;;;12.75;5.55;;;;;;;8.28;59.39;97387.56;5137149;27;20062;-59
2023/03/07 09:42:22;;;;;;;17.15;4.93;;;;;;;7.44;62.11;97381.72;5136784;28;20141;-66
2023/03/07 09:45:07;;;;;;;9.45;4.88;;;;;;;7.73;61.24;97383.31;5137079;28;20047;-61
2023/03/07 09:47:50;;;;;;;12.35;5.18;;;;;;;8.32;60.75;97393.78;5136890;28;20081;-63
2023/03/07 09:50:22;;;;;;;9.80;4.65;;;;;;;8.29;61.23;97388.34;5137077;28;20107;-60
2023/03/07 09:52:53;;;;;;;11.25;4.90;;;;;;;7.99;60.68;97395.78;5139150;27;20051;-62
2023/03/07 09:55:21;;;;;;;24.38;5.20;;;;;;;8.29;60.31;97396.53;5140210;27;20348;-63
2023/03/07 09:57:50;;;;;;;11.73;4.90;;;;;;;8.31;58.88;97402.38;5140453;28;20062;-63
2023/03/07 10:00:21;;;;;;;7.93;3.78;;;;;;;7.37;62.78;97396.13;5140016;27;20059;-65
2023/03/07 10:02:53;;;;;;;8.57;4.47;;;;;;;7.54;59.81;97397.31;5140342;28;20054;-65
2023/03/07 10:05:29;;;;;;;11.48;3.45;;;;;;;7.75;58.77;97394.59;5140134;27;20043;-62
2023/03/07 10:07:55;;;;;;;8.57;3.72;;;;;;;7.25;59.85;97407.38;5140282;27;20115;-66
2023/03/07 10:10:24;;;;;;;7.20;3.60;;;;;;;6.12;63.42;97403.72;5139908;27;20469;-63
2023/03/07 10:13:04;;;;;;;9.85;3.40;;;;;;;5.92;61.61;97407.81;5140275;28;20047;-64
2023/03/07 10:15:44;;;;;;;19.80;7.78;;;;;;;5.41;64.52;97401.94;5139738;27;20379;-64
2023/03/07 10:18:35;;;;;;;6.50;3.97;;;;;;;5.08;63.78;97405.47;5140061;28;20055;-65
2023/03/07 10:21:12;;;;;;;10.70;3.63;;;;;;;5.08;66.82;97404.69;5140223;27;20366;-61
2023/03/07 10:24:04;;;;;;;5.93;2.67;;;;;;;5.47;62.57;97402.41;5139627;28;20137;-64
2023/03/07 10:26:33;;;;;;;4.38;2.20;;;;;;;5.71;60.09;97403.78;5140128;27;20079;-62
2023/03/07 10:29:11;;;;;;;11.57;3.28;;;;;;;5.60;58.91;97411.06;5139511;28;20082;-64
2023/03/07 10:31:40;;;;;;;5.00;2.28;;;;;;;5.08;59.40;97410.13;5139718;28;20055;-63
2023/03/07 10:34:15;;;;;;;7.03;2.75;;;;;;;4.72;60.77;97413.19;5139622;27;20092;-64
2023/03/07 10:36:45;;;;;;;5.78;2.25;;;;;;;4.49;61.95;97413.28;5139600;28;20100;-64
2023/03/07 10:39:25;;;;;;;6.65;2.17;;;;;;;4.27;63.61;97406.00;5139989;28;20047;-63
2023/03/07 10:41:52;;;;;;;2.03;1.83;;;;;;;4.47;63.09;97402.03;5139478;28;20061;-62
2023/03/07 10:44:21;;;;;;;3.50;2.22;;;;;;;4.82;62.04;97402.84;5121908;28;20054;-61
2023/03/07 10:46:54;;;;;;;6.07;2.42;;;;;;;5.40;63.44;97402.34;5139522;27;20055;-61
2023/03/07 10:49:25;;;;;;;6.22;1.83;;;;;;;5.50;61.11;97398.13;5139175;28;20055;-58
2023/03/07 10:52:00;;;;;;;10.45;2.08;;;;;;;5.69;62.68;97395.19;5139133;27;20134;-54
2023/03/07 10:54:29;;;;;;;4.97;1.83;;;;;;;6.12;59.41;97393.63;5139508;28;20427;-60
2023/03/07 10:57:11;;;;;;;3.55;2.50;;;;;;;6.23;57.59;97390.19;5139484;27;20528;-54
2023/03/07 10:59:42;;;;;;;8.13;2.38;;;;;;;6.92;55.78;97387.44;5139121;28;20083;-53
2023/03/07 11:02:29;;;;;;;3.92;2.80;;;;;;;7.31;54.76;97382.09;5139726;27;20055;-60
2023/03/07 11:04:56;;;;;;;7.68;2.78;;;;;;;7.61;55.71;97382.91;5138466;27;20062;-56
2023/03/07 11:07:28;;;;;;;4.20;2.60;;;;;;;8.06;55.08;97391.47;5139386;28;20115;-62
2023/03/07 11:09:56;;;;;;;3.88;2.45;;;;;;;8.01;56.07;97390.72;5139022;27;20075;-61
2023/03/07 11:12:23;;;;;;;5.95;2.78;;;;;;;7.06;55.19;97383.97;5139036;28;20332;-61
2023/03/07 11:14:51;;;;;;;8.40;3.60;;;;;;;5.92;57.87;97386.84;5139029;28;20047;-64
2023/03/07 11:17:20;;;;;;;8.10;4.00;;;;;;;6.87;60.44;97384.31;5139051;28;20143;-64
2023/03/07 11:19:49;;;;;;;9.73;4.60;;;;;;;6.26;60.50;97386.72;5139204;28;20043;-62
2023/03/07 11:22:23;;;;;;;7.55;4.55;;;;;;;6.21;63.25;97387.06;5138766;28;20055;-64
2023/03/07 11:24:55;;;;;;;9.18;4.93;;;;;;;5.17;67.36;97380.75;5139352;28;20342;-66